Anchor, IL

7:39 PM CDT on October 22, 2014 (GMT -0500)
Rural Cooksville | Change Station
CLOSE
Current Station
Personal Weather Station
Location: Cooksville, IL
Elevation: 801 ft
Nearby Weather Stations

Elev 801 ft 40.52 °N, 88.72 °W | Updated 9 minutes ago

Clear
Clear
45.6 °F
Feels Like 46 °F
N
2.0
Wind Variable Wind from ESE
Gusts 4.0 mph

Today
High -- | Low -- °F
--% Chance of Precip.
Yesterday
High -- | Low -- °F
Precip. -- in
7:12 AM 6:03 PM
Waning Crescent, 1% visible
Pressure 30.27 in
Visibility 10.0 miles
Clouds Clear
Windchill 46 °F
Dew Point 37 °F
Humidity 72%
Rainfall 0.00 in
Snow Depth Not available.
UV 0 out of 12
Pollen .90 out of 12
Air Quality Not available.
Flu Activity No Activity
METAR KBMI 222356Z 12005KT 10SM CLR 11/02 A3025 RMK AO2 56009 60000 T01050022 10161 20105 SLP251

More Conditions Fewer Conditions

Pressure 30.27 in
Visibility 10.0 miles
Clouds Clear
Windchill 46 °F
Dew Point 37 °F
Humidity 72%
Rainfall 0.00 in
Snow Depth Not available.
UV 0 out of 12
Pollen .90 out of 12
Air Quality Not available.
Flu Activity No Activity
METAR KBMI 222356Z 12005KT 10SM CLR 11/02 A3025 RMK AO2 56009 60000 T01050022 10161 20105 SLP251

More Conditions Fewer Conditions

10-Day Weather Forecast

Almanac

Astronomy

Oct. 22, 2014 Rise Set
Actual Time 7:12 AM CDT 6:03 PM CDT
Civil Twilight 6:44 AM CDT 6:31 PM CDT
Nautical Twilight 6:13 AM CDT 7:03 PM CDT
Astronomical Twilight 5:41 AM CDT 7:34 PM CDT
Moon 5:53 AM CDT (10/22) 5:30 PM CDT (10/22)
Length of Visible Light 11h 46m
Length of Day
10h 51m
Tomorrow will be 2m 30s shorter.
Waning Crescent, 1% of the Moon is Illuminated
Today
Waning Crescent
Oct 23
New
Oct 30
First Quarter
Nov 6
Full
Nov 14
Last Quarter

Today's Extremes

State Highs State Lows

Community

WunderPhotos

Upload Photos

1,764,095 photos uploaded!

WunderBlogs® & News

Nearby

Snow Depth

Station Depth Elevation
No new snow has been reported.

Earthquake Activity

City Distance Mag. Time & Date
No recent earthquake activity has been reported nearby.
Minimum magnitude displayed is 2.5.

Coastal Water Temperatures

Place Temperature
No Stations Reporting

Nearby Weather Stations